地図

経路データ

SID SEASON NUMBER BASIN SUBBASIN NAME ISO_TIME NATURE LAT LON WMO_WIND WMO_PRES WMO_AGENCY TRACK_TYPE DIST2LAND LANDFALL IFLAG USA_AGENCY USA_ATCF_ID USA_LAT USA_LON USA_RECORD USA_STATUS USA_WIND USA_PRES USA_SSHS USA_R34_NE USA_R34_SE USA_R34_SW USA_R34_NW USA_R50_NE USA_R50_SE USA_R50_SW USA_R50_NW USA_R64_NE USA_R64_SE USA_R64_SW USA_R64_NW USA_POCI USA_ROCI USA_RMW USA_EYE TOKYO_LAT TOKYO_LON TOKYO_GRADE TOKYO_WIND TOKYO_PRES TOKYO_R50_DIR TOKYO_R50_LONG TOKYO_R50_SHORT TOKYO_R30_DIR TOKYO_R30_LONG TOKYO_R30_SHORT TOKYO_LAND CMA_LAT CMA_LON CMA_CAT CMA_WIND CMA_PRES HKO_LAT HKO_LON HKO_CAT HKO_WIND HKO_PRES NEWDELHI_LAT NEWDELHI_LON NEWDELHI_GRADE NEWDELHI_WIND NEWDELHI_PRES NEWDELHI_CI NEWDELHI_DP NEWDELHI_POCI REUNION_LAT REUNION_LON REUNION_TYPE REUNION_WIND REUNION_PRES REUNION_TNUM REUNION_CI REUNION_RMW REUNION_R34_NE REUNION_R34_SE REUNION_R34_SW REUNION_R34_NW REUNION_R50_NE REUNION_R50_SE REUNION_R50_SW REUNION_R50_NW REUNION_R64_NE REUNION_R64_SE REUNION_R64_SW REUNION_R64_NW BOM_LAT BOM_LON BOM_TYPE BOM_WIND BOM_PRES BOM_TNUM BOM_CI BOM_RMW BOM_R34_NE BOM_R34_SE BOM_R34_SW BOM_R34_NW BOM_R50_NE BOM_R50_SE BOM_R50_SW BOM_R50_NW BOM_R64_NE BOM_R64_SE BOM_R64_SW BOM_R64_NW BOM_ROCI BOM_POCI BOM_EYE BOM_POS_METHOD BOM_PRES_METHOD NADI_LAT NADI_LON NADI_CAT NADI_WIND NADI_PRES WELLINGTON_LAT WELLINGTON_LON WELLINGTON_WIND WELLINGTON_PRES DS824_LAT DS824_LON DS824_STAGE DS824_WIND DS824_PRES TD9636_LAT TD9636_LON TD9636_STAGE TD9636_WIND TD9636_PRES TD9635_LAT TD9635_LON TD9635_WIND TD9635_PRES TD9635_ROCI NEUMANN_LAT NEUMANN_LON NEUMANN_CLASS NEUMANN_WIND NEUMANN_PRES MLC_LAT MLC_LON MLC_CLASS MLC_WIND MLC_PRES USA_GUST BOM_GUST BOM_GUST_PER REUNION_GUST REUNION_GUST_PER USA_SEAHGT USA_SEARAD_NE USA_SEARAD_SE USA_SEARAD_SW USA_SEARAD_NW STORM_SPEED STORM_DIR
1903274N18303 1903 50 NA NA NOT_NAMED 1903-10-01 00:00:00 TS 17.7000 -57.3000 60 hurdat_atl main 879 846 O_____________ hurdat_atl AL071903 17.7000 -57.3000 TS 60 0 7 305
1903274N18303 1903 50 NA NA NOT_NAMED 1903-10-01 03:00:00 TS 17.9128 -57.6220 main 846 813 P_____________ AL071903 17.9128 -57.6220 TS 60 0 7 305
1903274N18303 1903 50 NA NA NOT_NAMED 1903-10-01 06:00:00 TS 18.1000 -57.9000 60 hurdat_atl main 813 791 O_____________ hurdat_atl AL071903 18.1000 -57.9000 TS 60 0 6 306
1903274N18303 1903 50 NA NA NOT_NAMED 1903-10-01 09:00:00 TS 18.2620 -58.1332 main 791 749 P_____________ AL071903 18.2620 -58.1332 TS 60 0 7 305
1903274N18303 1903 50 NA NA NOT_NAMED 1903-10-01 12:00:00 TS 18.5000 -58.5000 60 hurdat_atl main 749 676 O_____________ hurdat_atl AL071903 18.5000 -58.5000 TS 60 0 12 302
1903274N18303 1903 50 NA NA NOT_NAMED 1903-10-01 15:00:00 TS 18.9133 -59.2193 main 676 599 P_____________ AL071903 18.9133 -59.2193 TS 60 0 17 302
1903274N18303 1903 50 NA NA NOT_NAMED 1903-10-01 18:00:00 TS 19.4000 -60.0000 60 hurdat_atl main 599 558 O_____________ hurdat_atl AL071903 19.4000 -60.0000 TS 60 0 15 307
1903274N18303 1903 50 NA NA NOT_NAMED 1903-10-01 21:00:00 TS 19.8269 -60.5235 main 558 527 P_____________ AL071903 19.8269 -60.5235 TS 62 0 13 314
1903274N18303 1903 50 NA NA NOT_NAMED 1903-10-02 00:00:00 TS 20.3000 -61.0000 65 hurdat_atl main 527 506 O_____________ hurdat_atl AL071903 20.3000 -61.0000 HU 65 1 14 316
1903274N18303 1903 50 NA NA NOT_NAMED 1903-10-02 03:00:00 TS 20.8549 -61.5780 main 503 489 P_____________ AL071903 20.8549 -61.5780 HU 67 1 16 317
1903274N18303 1903 50 NA NA NOT_NAMED 1903-10-02 06:00:00 TS 21.5000 -62.2000 70 hurdat_atl main 496 496 O_____________ hurdat_atl AL071903 21.5000 -62.2000 HU 70 1 19 318
1903274N18303 1903 50 NA NA NOT_NAMED 1903-10-02 09:00:00 TS 22.2430 -62.9164 main 509 509 P_____________ AL071903 22.2430 -62.9164 HU 70 1 19 321
1903274N18303 1903 50 NA NA NOT_NAMED 1903-10-02 12:00:00 TS 23.0000 -63.5000 70 hurdat_atl main 558 558 O_____________ hurdat_atl AL071903 23.0000 -63.5000 HU 70 1 16 332
1903274N18303 1903 50 NA NA NOT_NAMED 1903-10-02 15:00:00 TS 23.6795 -63.7559 main 621 621 P_____________ AL071903 23.6795 -63.7559 HU 70 1 13 348
1903274N18303 1903 50 NA NA NOT_NAMED 1903-10-02 18:00:00 TS 24.3000 -63.8000 70 hurdat_atl main 685 685 O_____________ hurdat_atl AL071903 24.3000 -63.8000 HU 70 1 12 358
1903274N18303 1903 50 NA NA NOT_NAMED 1903-10-02 21:00:00 TS 24.8799 -63.7952 main 750 750 P_____________ AL071903 24.8799 -63.7952 HU 70 1 11 5
1903274N18303 1903 50 NA NA NOT_NAMED 1903-10-03 00:00:00 TS 25.4000 -63.7000 70 hurdat_atl main 806 806 O_____________ hurdat_atl AL071903 25.4000 -63.7000 HU 70 1 10 12
1903274N18303 1903 50 NA NA NOT_NAMED 1903-10-03 03:00:00 TS 25.8575 -63.5724 main 863 863 P_____________ AL071903 25.8575 -63.5724 HU 70 1 9 17
1903274N18303 1903 50 NA NA NOT_NAMED 1903-10-03 06:00:00 TS 26.3000 -63.4000 70 hurdat_atl main 911 911 O_____________ hurdat_atl AL071903 26.3000 -63.4000 HU 70 1 10 19
1903274N18303 1903 50 NA NA NOT_NAMED 1903-10-03 09:00:00 TS 26.8150 -63.2002 main 970 970 P_____________ AL071903 26.8150 -63.2002 HU 72 1 11 20
1903274N18303 1903 50 NA NA NOT_NAMED 1903-10-03 12:00:00 TS 27.3000 -63.0000 75 hurdat_atl main 1029 1029 O_____________ hurdat_atl AL071903 27.3000 -63.0000 HU 75 1 9 20
1903274N18303 1903 50 NA NA NOT_NAMED 1903-10-03 15:00:00 TS 27.6574 -62.8570 main 1075 1075 P_____________ AL071903 27.6574 -62.8570 HU 75 1 8 21
1903274N18303 1903 50 NA NA NOT_NAMED 1903-10-03 18:00:00 TS 28.0000 -62.7000 75 hurdat_atl main 1113 1113 O_____________ hurdat_atl AL071903 28.0000 -62.7000 HU 75 1 9 23
1903274N18303 1903 50 NA NA NOT_NAMED 1903-10-03 21:00:00 TS 28.4575 -62.4726 main 1172 1172 P_____________ AL071903 28.4575 -62.4726 HU 77 1 10 26
1903274N18303 1903 50 NA NA NOT_NAMED 1903-10-04 00:00:00 TS 28.9000 -62.2000 80 hurdat_atl main 1223 1223 O_____________ hurdat_atl AL071903 28.9000 -62.2000 HU 80 1 9 32
1903274N18303 1903 50 NA NA NOT_NAMED 1903-10-04 03:00:00 TS 29.2298 -61.9296 main 1263 1263 P_____________ AL071903 29.2298 -61.9296 HU 80 1 8 41
1903274N18303 1903 50 NA NA NOT_NAMED 1903-10-04 06:00:00 TS 29.5000 -61.6000 80 hurdat_atl main 1304 1304 O_____________ hurdat_atl AL071903 29.5000 -61.6000 HU 80 1 8 49
1903274N18303 1903 50 NA NA NOT_NAMED 1903-10-04 09:00:00 TS 29.7569 -61.2244 main 1349 1349 P_____________ AL071903 29.7569 -61.2244 HU 82 1 9 57
1903274N18303 1903 50 NA NA NOT_NAMED 1903-10-04 12:00:00 TS 30.0000 -60.7000 85 hurdat_atl main 1387 1387 O_____________ hurdat_atl AL071903 30.0000 -60.7000 HU 85 2 12 64
1903274N18303 1903 50 NA NA NOT_NAMED 1903-10-04 15:00:00 TS 30.2799 -59.9756 main 1444 1444 P_____________ AL071903 30.2799 -59.9756 HU 85 2 15 70
1903274N18303 1903 50 NA NA NOT_NAMED 1903-10-04 18:00:00 TS 30.5000 -59.1000 85 hurdat_atl main 1502 1502 O_____________ hurdat_atl AL071903 30.5000 -59.1000 HU 85 2 16 78
1903274N18303 1903 50 NA NA NOT_NAMED 1903-10-04 21:00:00 TS 30.6021 -58.1798 main 1553 1553 P_____________ AL071903 30.6021 -58.1798 HU 85 2 16 86
1903274N18303 1903 50 NA NA NOT_NAMED 1903-10-05 00:00:00 TS 30.6000 -57.2000 85 hurdat_atl main 1603 1603 O_____________ hurdat_atl AL071903 30.6000 -57.2000 HU 85 2 17 92
1903274N18303 1903 50 NA NA NOT_NAMED 1903-10-05 03:00:00 TS 30.5372 -56.1924 main 1651 1651 P_____________ AL071903 30.5372 -56.1924 HU 85 2 17 97
1903274N18303 1903 50 NA NA NOT_NAMED 1903-10-05 06:00:00 TS 30.4000 -55.2000 85 hurdat_atl main 1702 1702 O_____________ hurdat_atl AL071903 30.4000 -55.2000 HU 85 2 17 101
1903274N18303 1903 50 NA NA NOT_NAMED 1903-10-05 09:00:00 TS 30.2220 -54.2626 main 1743 1743 P_____________ AL071903 30.2220 -54.2626 HU 85 2 16 104
1903274N18303 1903 50 NA NA NOT_NAMED 1903-10-05 12:00:00 TS 30.0000 -53.4000 85 hurdat_atl main 1788 1788 O_____________ hurdat_atl AL071903 30.0000 -53.4000 HU 85 2 15 108
1903274N18303 1903 50 NA NA NOT_NAMED 1903-10-05 15:00:00 TS 29.7639 -52.6431 main 1830 1823 P_____________ AL071903 29.7639 -52.6431 HU 82 1 14 111
1903274N18303 1903 50 NA NA NOT_NAMED 1903-10-05 18:00:00 TS 29.5000 -51.9000 80 hurdat_atl main 1861 1861 O_____________ hurdat_atl AL071903 29.5000 -51.9000 HU 80 1 15 111
1903274N18303 1903 50 NA NA NOT_NAMED 1903-10-05 21:00:00 TS 29.2226 -51.0428 main 1910 1910 P_____________ AL071903 29.2226 -51.0428 HU 77 1 16 112
1903274N18303 1903 50 NA NA NOT_NAMED 1903-10-06 00:00:00 TS 28.9000 -50.2000 75 hurdat_atl main 1954 1954 O_____________ hurdat_atl AL071903 28.9000 -50.2000 HU 75 1 16 116
1903274N18303 1903 50 NA NA NOT_NAMED 1903-10-06 03:00:00 TS 28.5373 -49.4328 main 1997 1997 P_____________ AL071903 28.5373 -49.4328 HU 72 1 15 123
1903274N18303 1903 50 NA NA NOT_NAMED 1903-10-06 06:00:00 TS 28.1000 -48.8000 70 hurdat_atl main 2025 2025 O_____________ hurdat_atl AL071903 28.1000 -48.8000 HU 70 1 15 135
1903274N18303 1903 50 NA NA NOT_NAMED 1903-10-06 09:00:00 TS 27.5048 -48.2796 main 2038 2037 P_____________ AL071903 27.5048 -48.2796 HU 70 1 13 147
1903274N18303 1903 50 NA NA NOT_NAMED 1903-10-06 12:00:00 TS 27.0000 -48.0000 70 hurdat_atl main 2041 2032 O_____________ hurdat_atl AL071903 27.0000 -48.0000 HU 70 1 7 162
1903274N18303 1903 50 NA NA NOT_NAMED 1903-10-06 15:00:00 TS 26.8249 -48.0257 main 2032 2014 P_____________ AL071903 26.8249 -48.0257 HU 70 1 3 222
1903274N18303 1903 50 NA NA NOT_NAMED 1903-10-06 18:00:00 TS 26.8000 -48.2000 70 hurdat_atl main 2014 2000 O_____________ hurdat_atl AL071903 26.8000 -48.2000 HU 70 1 3 248
1903274N18303 1903 50 NA NA NOT_NAMED 1903-10-06 21:00:00 TS 26.7275 -48.2925 main 2000 1991 P_____________ AL071903 26.7275 -48.2925 HU 70 1 2 240
1903274N18303 1903 50 NA NA NOT_NAMED 1903-10-07 00:00:00 TS 26.7000 -48.4000 70 hurdat_atl main 1991 1982 O_____________ hurdat_atl AL071903 26.7000 -48.4000 HU 70 1 2 270
1903274N18303 1903 50 NA NA NOT_NAMED 1903-10-07 03:00:00 TS 26.7275 -48.5425 main 1982 1969 P_____________ AL071903 26.7275 -48.5425 HU 70 1 3 291
1903274N18303 1903 50 NA NA NOT_NAMED 1903-10-07 06:00:00 TS 26.8000 -48.7000 70 hurdat_atl main 1969 1951 O_____________ hurdat_atl AL071903 26.8000 -48.7000 HU 70 1 3 294
1903274N18303 1903 50 NA NA NOT_NAMED 1903-10-07 09:00:00 TS 26.8625 -48.8874 main 1956 1947 P_____________ AL071903 26.8625 -48.8874 HU 70 1 3 307
1903274N18303 1903 50 NA NA NOT_NAMED 1903-10-07 12:00:00 TS 27.0000 -49.0000 70 hurdat_atl main 1951 1951 O_____________ hurdat_atl AL071903 27.0000 -49.0000 HU 70 1 4 351
1903274N18303 1903 50 NA NA NOT_NAMED 1903-10-07 15:00:00 TS 27.2849 -48.9675 main 1966 1966 P_____________ AL071903 27.2849 -48.9675 HU 70 1 6 16
1903274N18303 1903 50 NA NA NOT_NAMED 1903-10-07 18:00:00 TS 27.6000 -48.8000 70 hurdat_atl main 1999 1999 O_____________ hurdat_atl AL071903 27.6000 -48.8000 HU 70 1 7 34
1903274N18303 1903 50 NA NA NOT_NAMED 1903-10-07 21:00:00 TS 27.8298 -48.5600 main 2027 2027 P_____________ AL071903 27.8298 -48.5600 HU 70 1 7 53
1903274N18303 1903 50 NA NA NOT_NAMED 1903-10-08 00:00:00 TS 28.0000 -48.2000 70 hurdat_atl main 2072 2072 O_____________ hurdat_atl AL071903 28.0000 -48.2000 HU 70 1 8 68
1903274N18303 1903 50 NA NA NOT_NAMED 1903-10-08 03:00:00 TS 28.1226 -47.7299 main 2115 2106 P_____________ AL071903 28.1226 -47.7299 HU 70 1 9 77
1903274N18303 1903 50 NA NA NOT_NAMED 1903-10-08 06:00:00 TS 28.2000 -47.2000 70 hurdat_atl main 2114 2114 O_____________ hurdat_atl AL071903 28.2000 -47.2000 HU 70 1 9 82
1903274N18303 1903 50 NA NA NOT_NAMED 1903-10-08 09:00:00 TS 28.2496 -46.7147 main 2125 2114 P_____________ AL071903 28.2496 -46.7147 HU 70 1 9 84
1903274N18303 1903 50 NA NA NOT_NAMED 1903-10-08 12:00:00 TS 28.3000 -46.2000 70 hurdat_atl main 2127 2126 O_____________ hurdat_atl AL071903 28.3000 -46.2000 HU 70 1 9 83
1903274N18303 1903 50 NA NA NOT_NAMED 1903-10-08 15:00:00 TS 28.3691 -45.6668 main 2129 2129 P_____________ AL071903 28.3691 -45.6668 HU 67 1 11 79
1903274N18303 1903 50 NA NA NOT_NAMED 1903-10-08 18:00:00 TS 28.5000 -45.0000 65 hurdat_atl main 2137 2133 O_____________ hurdat_atl AL071903 28.5000 -45.0000 HU 65 1 14 76
1903274N18303 1903 50 NA NA NOT_NAMED 1903-10-08 21:00:00 TS 28.7283 -44.0805 main 2144 2136 P_____________ AL071903 28.7283 -44.0805 HU 65 1 17 73
1903274N18303 1903 50 NA NA NOT_NAMED 1903-10-09 00:00:00 TS 29.0000 -43.1000 65 hurdat_atl main 2146 2142 O_____________ hurdat_atl AL071903 29.0000 -43.1000 HU 65 1 17 72
1903274N18303 1903 50 NA NA NOT_NAMED 1903-10-09 03:00:00 TS 29.2492 -42.2695 main 2154 2148 P_____________ AL071903 29.2492 -42.2695 HU 62 0 15 70
1903274N18303 1903 50 NA NA NOT_NAMED 1903-10-09 06:00:00 TS 29.5000 -41.5000 60 hurdat_atl main 2155 2153 O_____________ hurdat_atl AL071903 29.5000 -41.5000 TS 60 0 14 70
1903274N18303 1903 50 NA NA NOT_NAMED 1903-10-09 09:00:00 TS 29.7497 -40.7272 main 2168 2158 P_____________ AL071903 29.7497 -40.7272 TS 55 0 14 69
1903274N18303 1903 50 NA NA NOT_NAMED 1903-10-09 12:00:00 TS 30.0000 -40.0000 50 hurdat_atl main 2169 2168 O_____________ hurdat_atl AL071903 30.0000 -40.0000 TS 50 0 13 67
1903274N18303 1903 50 NA NA NOT_NAMED 1903-10-09 15:00:00 TS 30.2571 -39.3273 main 2172 2129 P_____________ AL071903 30.2571 -39.3273 TS 47 0 12 66
1903274N18303 1903 50 NA NA NOT_NAMED 1903-10-09 18:00:00 TS 30.5000 -38.7000 45 hurdat_atl main 2129 2072 O_____________ hurdat_atl AL071903 30.5000 -38.7000 TS 45 0 11 68
1903274N18303 1903 50 NA NA NOT_NAMED 1903-10-09 21:00:00 TS 30.6845 -38.0991 main 2072 2016 P_____________ AL071903 30.6845 -38.0991 TS 42 0 11 69
1903274N18303 1903 50 NA NA NOT_NAMED 1903-10-10 00:00:00 ET 30.9000 -37.5000 40 hurdat_atl main 2016 1961 O_____________ hurdat_atl AL071903 30.9000 -37.5000 EX 40 -4 12 63
1903274N18303 1903 50 NA NA NOT_NAMED 1903-10-10 03:00:00 ET 31.2199 -36.8500 main 1952 1899 P_____________ AL071903 31.2199 -36.8500 EX 37 -4 13 58
1903274N18303 1903 50 NA NA NOT_NAMED 1903-10-10 06:00:00 ET 31.6000 -36.2000 35 hurdat_atl main 1899 1856 O_____________ hurdat_atl AL071903 31.6000 -36.2000 EX 35 -4 13 54
1903274N18303 1903 50 NA NA NOT_NAMED 1903-10-10 09:00:00 ET 31.9614 -35.6356 main 1849 1800 P_____________ AL071903 31.9614 -35.6356 EX 35 -4 13 52
1903274N18303 1903 50 NA NA NOT_NAMED 1903-10-10 12:00:00 ET 32.4000 -35.0000 35 hurdat_atl main 1800 1737 O_____________ hurdat_atl AL071903 32.4000 -35.0000 EX 35 -4 16 51
1903274N18303 1903 50 NA NA NOT_NAMED 1903-10-10 15:00:00 ET 32.9646 -34.1664 main 1740 1673 P_____________ AL071903 32.9646 -34.1664 EX 35 -4 19 52
1903274N18303 1903 50 NA NA NOT_NAMED 1903-10-10 18:00:00 ET 33.6000 -33.2000 35 hurdat_atl main 1667 O_____________ hurdat_atl AL071903 33.6000 -33.2000 EX 35 -4 21 52

IBTrACS Databaseについて

本データベースは、米国NOAAが公開する1842年以降の世界の熱帯低気圧のベストトラックデータアーカイブInternational Best Track Archive for Climate Stewardship (IBTrACS)を、ウェブで閲覧しやすい形式に変換したものです。

最終更新日:2021-12-03